sensor_id;sensor_type;location;lat;lon;timestamp;pressure;altitude;pressure_sealevel;temperature;humidity
30967;BME280;17649;51.836;8.330;2023-06-24T00:00:05;101884.94;;;17.15;nan
30967;BME280;17649;51.836;8.330;2023-06-24T00:03:13;101893.66;;;17.02;nan
30967;BME280;17649;51.836;8.330;2023-06-24T00:06:16;101892.63;;;17.04;nan
30967;BME280;17649;51.836;8.330;2023-06-24T00:09:18;101887.50;;;16.88;nan
30967;BME280;17649;51.836;8.330;2023-06-24T00:12:18;101885.34;;;16.95;nan
30967;BME280;17649;51.836;8.330;2023-06-24T00:15:19;101891.03;;;17.02;nan
30967;BME280;17649;51.836;8.330;2023-06-24T00:18:19;101895.63;;;16.84;nan
30967;BME280;17649;51.836;8.330;2023-06-24T00:21:20;101884.88;;;16.74;nan
30967;BME280;17649;51.836;8.330;2023-06-24T00:24:21;101884.88;;;16.74;nan
30967;BME280;17649;51.836;8.330;2023-06-24T00:27:25;101881.84;;;16.66;nan
30967;BME280;17649;51.836;8.330;2023-06-24T00:30:26;101888.94;;;16.50;nan
30967;BME280;17649;51.836;8.330;2023-06-24T00:33:26;101894.56;;;16.58;nan
30967;BME280;17649;51.836;8.330;2023-06-24T00:36:26;101907.06;;;16.53;nan
30967;BME280;17649;51.836;8.330;2023-06-24T00:39:27;101901.34;;;16.46;nan
30967;BME280;17649;51.836;8.330;2023-06-24T00:42:27;101906.13;;;16.39;nan
30967;BME280;17649;51.836;8.330;2023-06-24T00:45:27;101911.31;;;16.25;nan
30967;BME280;17649;51.836;8.330;2023-06-24T00:48:28;101912.66;;;16.17;nan
30967;BME280;17649;51.836;8.330;2023-06-24T00:51:28;101911.53;;;16.21;nan
30967;BME280;17649;51.836;8.330;2023-06-24T00:54:33;101904.00;;;16.16;nan
30967;BME280;17649;51.836;8.330;2023-06-24T00:57:34;101902.53;;;16.26;nan
30967;BME280;17649;51.836;8.330;2023-06-24T01:00:38;101902.72;;;16.23;nan
30967;BME280;17649;51.836;8.330;2023-06-24T01:03:38;101905.25;;;16.25;nan
30967;BME280;17649;51.836;8.330;2023-06-24T01:06:39;101905.44;;;16.06;nan
30967;BME280;17649;51.836;8.330;2023-06-24T01:09:43;101906.84;;;15.97;nan
30967;BME280;17649;51.836;8.330;2023-06-24T01:12:43;101912.16;;;15.96;nan
30967;BME280;17649;51.836;8.330;2023-06-24T01:15:44;101912.09;;;15.82;nan
30967;BME280;17649;51.836;8.330;2023-06-24T01:18:46;101913.25;;;15.76;nan
30967;BME280;17649;51.836;8.330;2023-06-24T01:22:01;101915.56;;;15.66;nan
30967;BME280;17649;51.836;8.330;2023-06-24T01:28:30;101909.47;;;15.82;nan
30967;BME280;17649;51.836;8.330;2023-06-24T01:34:36;101911.06;;;15.84;nan
30967;BME280;17649;51.836;8.330;2023-06-24T01:40:38;101908.44;;;15.84;nan
30967;BME280;17649;51.836;8.330;2023-06-24T01:43:40;101912.47;;;15.90;nan
30967;BME280;17649;51.836;8.330;2023-06-24T01:46:42;101911.22;;;15.97;nan
30967;BME280;17649;51.836;8.330;2023-06-24T01:49:44;101909.13;;;15.88;nan
30967;BME280;17649;51.836;8.330;2023-06-24T01:52:45;101901.19;;;15.89;nan
30967;BME280;17649;51.836;8.330;2023-06-24T01:55:45;101897.84;;;15.87;nan
30967;BME280;17649;51.836;8.330;2023-06-24T01:58:46;101902.56;;;15.80;nan
30967;BME280;17649;51.836;8.330;2023-06-24T02:01:47;101898.66;;;15.88;nan
30967;BME280;17649;51.836;8.330;2023-06-24T02:04:51;101892.44;;;15.90;nan
30967;BME280;17649;51.836;8.330;2023-06-24T02:07:52;101883.56;;;15.78;nan
30967;BME280;17649;51.836;8.330;2023-06-24T02:10:53;101888.78;;;15.78;nan
30967;BME280;17649;51.836;8.330;2023-06-24T02:13:54;101889.19;;;15.55;nan
30967;BME280;17649;51.836;8.330;2023-06-24T02:16:55;101895.06;;;15.59;nan
30967;BME280;17649;51.836;8.330;2023-06-24T02:19:57;101895.34;;;15.54;nan
30967;BME280;17649;51.836;8.330;2023-06-24T02:22:59;101906.59;;;15.55;nan
30967;BME280;17649;51.836;8.330;2023-06-24T02:26:00;101896.44;;;15.66;nan
30967;BME280;17649;51.836;8.330;2023-06-24T02:29:01;101902.34;;;15.69;nan
30967;BME280;17649;51.836;8.330;2023-06-24T02:32:01;101904.94;;;15.69;nan
30967;BME280;17649;51.836;8.330;2023-06-24T02:35:05;101903.34;;;15.67;nan
30967;BME280;17649;51.836;8.330;2023-06-24T02:38:05;101901.91;;;15.61;nan
30967;BME280;17649;51.836;8.330;2023-06-24T02:41:06;101903.63;;;15.62;nan
30967;BME280;17649;51.836;8.330;2023-06-24T02:44:06;101900.38;;;15.57;nan
30967;BME280;17649;51.836;8.330;2023-06-24T02:47:07;101899.03;;;15.50;nan
30967;BME280;17649;51.836;8.330;2023-06-24T02:50:09;101908.72;;;15.48;nan
30967;BME280;17649;51.836;8.330;2023-06-24T02:53:10;101903.06;;;15.40;nan
30967;BME280;17649;51.836;8.330;2023-06-24T02:56:11;101902.91;;;15.43;nan
30967;BME280;17649;51.836;8.330;2023-06-24T02:59:12;101906.44;;;15.42;nan
30967;BME280;17649;51.836;8.330;2023-06-24T03:02:13;101907.81;;;15.33;nan
30967;BME280;17649;51.836;8.330;2023-06-24T03:05:14;101911.91;;;15.21;nan
30967;BME280;17649;51.836;8.330;2023-06-24T03:08:15;101911.25;;;15.34;nan
30967;BME280;17649;51.836;8.330;2023-06-24T03:11:15;101913.50;;;15.40;nan
30967;BME280;17649;51.836;8.330;2023-06-24T03:14:16;101910.22;;;15.36;nan
30967;BME280;17649;51.836;8.330;2023-06-24T03:17:16;101913.75;;;15.35;nan
30967;BME280;17649;51.836;8.330;2023-06-24T03:20:16;101904.84;;;15.39;nan
30967;BME280;17649;51.836;8.330;2023-06-24T03:23:16;101917.97;;;15.38;nan
30967;BME280;17649;51.836;8.330;2023-06-24T03:26:17;101913.25;;;15.29;nan
30967;BME280;17649;51.836;8.330;2023-06-24T03:29:17;101912.56;;;15.41;nan
30967;BME280;17649;51.836;8.330;2023-06-24T03:32:17;101916.97;;;15.40;nan
30967;BME280;17649;51.836;8.330;2023-06-24T03:35:17;101919.06;;;15.34;nan
30967;BME280;17649;51.836;8.330;2023-06-24T03:38:18;101911.38;;;15.31;nan
30967;BME280;17649;51.836;8.330;2023-06-24T03:41:18;101912.19;;;15.33;nan
30967;BME280;17649;51.836;8.330;2023-06-24T03:44:18;101916.38;;;15.51;nan
30967;BME280;17649;51.836;8.330;2023-06-24T03:47:20;101922.09;;;15.58;nan
30967;BME280;17649;51.836;8.330;2023-06-24T03:50:20;101922.78;;;15.61;nan
30967;BME280;17649;51.836;8.330;2023-06-24T03:53:20;101922.63;;;15.64;nan
30967;BME280;17649;51.836;8.330;2023-06-24T03:56:21;101928.44;;;15.69;nan
30967;BME280;17649;51.836;8.330;2023-06-24T03:59:24;101924.88;;;15.70;nan
30967;BME280;17649;51.836;8.330;2023-06-24T04:02:24;101926.56;;;15.71;nan
30967;BME280;17649;51.836;8.330;2023-06-24T04:05:26;101938.34;;;15.78;nan
30967;BME280;17649;51.836;8.330;2023-06-24T04:08:27;101932.13;;;15.81;nan
30967;BME280;17649;51.836;8.330;2023-06-24T04:11:30;101934.28;;;15.89;nan
30967;BME280;17649;51.836;8.330;2023-06-24T04:14:30;101926.50;;;16.03;nan
30967;BME280;17649;51.836;8.330;2023-06-24T04:17:31;101924.31;;;16.11;nan
30967;BME280;17649;51.836;8.330;2023-06-24T04:20:31;101917.59;;;16.21;nan
30967;BME280;17649;51.836;8.330;2023-06-24T04:23:32;101920.81;;;16.26;nan
30967;BME280;17649;51.836;8.330;2023-06-24T04:26:32;101917.84;;;16.32;nan
30967;BME280;17649;51.836;8.330;2023-06-24T04:29:32;101916.38;;;16.43;nan
30967;BME280;17649;51.836;8.330;2023-06-24T04:32:33;101910.53;;;16.53;nan
30967;BME280;17649;51.836;8.330;2023-06-24T04:35:33;101912.75;;;16.59;nan
30967;BME280;17649;51.836;8.330;2023-06-24T04:38:33;101926.25;;;16.67;nan
30967;BME280;17649;51.836;8.330;2023-06-24T04:41:34;101924.84;;;16.76;nan
30967;BME280;17649;51.836;8.330;2023-06-24T04:44:34;101922.63;;;16.84;nan
30967;BME280;17649;51.836;8.330;2023-06-24T04:47:34;101921.09;;;16.94;nan
30967;BME280;17649;51.836;8.330;2023-06-24T04:50:35;101928.38;;;17.04;nan
30967;BME280;17649;51.836;8.330;2023-06-24T04:53:35;101924.91;;;17.17;nan
30967;BME280;17649;51.836;8.330;2023-06-24T04:56:35;101921.66;;;17.28;nan
30967;BME280;17649;51.836;8.330;2023-06-24T04:59:35;101923.03;;;17.34;nan
30967;BME280;17649;51.836;8.330;2023-06-24T05:02:38;101920.28;;;17.49;nan
30967;BME280;17649;51.836;8.330;2023-06-24T05:05:41;101924.75;;;17.62;nan
30967;BME280;17649;51.836;8.330;2023-06-24T05:08:41;101924.53;;;17.79;nan
30967;BME280;17649;51.836;8.330;2023-06-24T05:11:41;101927.97;;;17.79;nan
30967;BME280;17649;51.836;8.330;2023-06-24T05:14:42;101926.97;;;17.95;nan
30967;BME280;17649;51.836;8.330;2023-06-24T05:17:42;101920.72;;;18.10;nan
30967;BME280;17649;51.836;8.330;2023-06-24T05:20:42;101914.72;;;18.35;nan
30967;BME280;17649;51.836;8.330;2023-06-24T05:23:43;101911.66;;;18.41;nan
30967;BME280;17649;51.836;8.330;2023-06-24T05:26:44;101910.72;;;18.55;nan
30967;BME280;17649;51.836;8.330;2023-06-24T05:29:45;101914.53;;;18.63;nan
30967;BME280;17649;51.836;8.330;2023-06-24T05:32:45;101906.34;;;18.68;nan
30967;BME280;17649;51.836;8.330;2023-06-24T05:35:46;101910.66;;;18.82;nan
30967;BME280;17649;51.836;8.330;2023-06-24T05:38:46;101916.50;;;18.98;nan
30967;BME280;17649;51.836;8.330;2023-06-24T05:41:48;101911.75;;;19.03;nan
30967;BME280;17649;51.836;8.330;2023-06-24T05:44:48;101909.44;;;19.11;nan
30967;BME280;17649;51.836;8.330;2023-06-24T05:47:49;101904.28;;;19.22;nan
30967;BME280;17649;51.836;8.330;2023-06-24T05:50:49;101916.72;;;19.31;nan
30967;BME280;17649;51.836;8.330;2023-06-24T05:53:49;101916.28;;;19.50;nan
30967;BME280;17649;51.836;8.330;2023-06-24T05:56:50;101917.94;;;19.64;nan
30967;BME280;17649;51.836;8.330;2023-06-24T05:59:50;101917.00;;;19.76;nan
30967;BME280;17649;51.836;8.330;2023-06-24T06:02:50;101919.63;;;20.00;nan
30967;BME280;17649;51.836;8.330;2023-06-24T06:05:51;101916.22;;;20.22;nan
30967;BME280;17649;51.836;8.330;2023-06-24T06:08:51;101913.22;;;20.50;nan
30967;BME280;17649;51.836;8.330;2023-06-24T06:11:51;101911.81;;;20.91;nan
30967;BME280;17649;51.836;8.330;2023-06-24T06:14:51;101905.00;;;21.00;nan
30967;BME280;17649;51.836;8.330;2023-06-24T06:17:52;101899.38;;;21.04;nan
30967;BME280;17649;51.836;8.330;2023-06-24T06:20:52;101906.19;;;20.96;nan
30967;BME280;17649;51.836;8.330;2023-06-24T06:23:52;101896.97;;;21.01;nan
30967;BME280;17649;51.836;8.330;2023-06-24T06:26:52;101902.31;;;21.22;nan
30967;BME280;17649;51.836;8.330;2023-06-24T06:29:53;101907.38;;;21.25;nan
30967;BME280;17649;51.836;8.330;2023-06-24T06:32:53;101898.50;;;21.37;nan
30967;BME280;17649;51.836;8.330;2023-06-24T06:35:53;101908.47;;;20.89;nan
30967;BME280;17649;51.836;8.330;2023-06-24T06:38:53;101905.84;;;21.00;nan
30967;BME280;17649;51.836;8.330;2023-06-24T06:41:54;101902.50;;;20.87;nan
30967;BME280;17649;51.836;8.330;2023-06-24T06:44:54;101896.00;;;20.80;nan
30967;BME280;17649;51.836;8.330;2023-06-24T06:47:54;101899.88;;;20.98;nan
30967;BME280;17649;51.836;8.330;2023-06-24T06:50:54;101895.13;;;21.24;nan
30967;BME280;17649;51.836;8.330;2023-06-24T06:53:55;101900.91;;;21.29;nan
30967;BME280;17649;51.836;8.330;2023-06-24T06:56:59;101906.97;;;21.41;nan
30967;BME280;17649;51.836;8.330;2023-06-24T06:59:59;101901.28;;;21.68;nan
30967;BME280;17649;51.836;8.330;2023-06-24T07:03:00;101898.34;;;21.82;nan
30967;BME280;17649;51.836;8.330;2023-06-24T07:06:00;101892.69;;;22.19;nan
30967;BME280;17649;51.836;8.330;2023-06-24T07:09:01;101893.31;;;22.11;nan
30967;BME280;17649;51.836;8.330;2023-06-24T07:12:01;101893.13;;;22.24;nan
30967;BME280;17649;51.836;8.330;2023-06-24T07:15:02;101891.75;;;22.29;nan
30967;BME280;17649;51.836;8.330;2023-06-24T07:18:02;101895.75;;;22.24;nan
30967;BME280;17649;51.836;8.330;2023-06-24T07:21:02;101895.31;;;22.40;nan
30967;BME280;17649;51.836;8.330;2023-06-24T07:24:03;101892.31;;;22.54;nan
30967;BME280;17649;51.836;8.330;2023-06-24T07:27:04;101894.78;;;22.76;nan
30967;BME280;17649;51.836;8.330;2023-06-24T07:30:04;101885.66;;;22.80;nan
30967;BME280;17649;51.836;8.330;2023-06-24T07:33:05;101885.78;;;22.79;nan
30967;BME280;17649;51.836;8.330;2023-06-24T07:36:05;101888.53;;;23.08;nan
30967;BME280;17649;51.836;8.330;2023-06-24T07:39:05;101884.25;;;23.16;nan
30967;BME280;17649;51.836;8.330;2023-06-24T07:42:06;101896.34;;;23.19;nan
30967;BME280;17649;51.836;8.330;2023-06-24T07:45:07;101893.31;;;23.33;nan
30967;BME280;17649;51.836;8.330;2023-06-24T07:48:07;101887.88;;;23.25;nan
30967;BME280;17649;51.836;8.330;2023-06-24T07:51:10;101887.78;;;23.56;nan
30967;BME280;17649;51.836;8.330;2023-06-24T07:54:14;101883.94;;;23.69;nan
30967;BME280;17649;51.836;8.330;2023-06-24T07:57:14;101888.91;;;23.63;nan
30967;BME280;17649;51.836;8.330;2023-06-24T08:00:15;101886.13;;;23.55;nan
30967;BME280;17649;51.836;8.330;2023-06-24T08:03:15;101881.53;;;23.95;nan
30967;BME280;17649;51.836;8.330;2023-06-24T08:06:16;101880.16;;;24.01;nan
30967;BME280;17649;51.836;8.330;2023-06-24T08:09:16;101880.00;;;23.93;nan
30967;BME280;17649;51.836;8.330;2023-06-24T08:12:17;101879.03;;;24.03;nan
30967;BME280;17649;51.836;8.330;2023-06-24T08:15:17;101880.44;;;23.98;nan
30967;BME280;17649;51.836;8.330;2023-06-24T08:18:17;101886.28;;;23.82;nan
30967;BME280;17649;51.836;8.330;2023-06-24T08:21:17;101879.75;;;23.86;nan
30967;BME280;17649;51.836;8.330;2023-06-24T08:24:18;101881.06;;;24.29;nan
30967;BME280;17649;51.836;8.330;2023-06-24T08:27:18;101867.94;;;24.56;nan
30967;BME280;17649;51.836;8.330;2023-06-24T08:30:18;101875.50;;;24.32;nan
30967;BME280;17649;51.836;8.330;2023-06-24T08:33:19;101867.31;;;24.62;nan
30967;BME280;17649;51.836;8.330;2023-06-24T08:36:21;101866.06;;;24.94;nan
30967;BME280;17649;51.836;8.330;2023-06-24T08:39:21;101858.91;;;24.77;nan
30967;BME280;17649;51.836;8.330;2023-06-24T08:42:22;101864.19;;;24.77;nan
30967;BME280;17649;51.836;8.330;2023-06-24T08:45:22;101858.41;;;24.63;nan
30967;BME280;17649;51.836;8.330;2023-06-24T08:48:41;101858.78;;;24.96;nan
30967;BME280;17649;51.836;8.330;2023-06-24T08:51:42;101853.03;;;25.28;nan
30967;BME280;17649;51.836;8.330;2023-06-24T08:54:50;101847.72;;;25.10;nan
30967;BME280;17649;51.836;8.330;2023-06-24T08:57:50;101855.16;;;25.42;nan
30967;BME280;17649;51.836;8.330;2023-06-24T09:00:51;101847.22;;;25.24;nan
30967;BME280;17649;51.836;8.330;2023-06-24T09:03:51;101840.81;;;25.45;nan
30967;BME280;17649;51.836;8.330;2023-06-24T09:06:51;101850.25;;;25.65;nan
30967;BME280;17649;51.836;8.330;2023-06-24T09:09:52;101842.28;;;25.65;nan
30967;BME280;17649;51.836;8.330;2023-06-24T09:12:54;101834.25;;;25.93;nan
30967;BME280;17649;51.836;8.330;2023-06-24T09:15:55;101841.63;;;25.63;nan
30967;BME280;17649;51.836;8.330;2023-06-24T09:18:57;101835.84;;;25.68;nan
30967;BME280;17649;51.836;8.330;2023-06-24T09:22:01;101824.91;;;26.06;nan
30967;BME280;17649;51.836;8.330;2023-06-24T09:25:02;101818.88;;;26.30;nan
30967;BME280;17649;51.836;8.330;2023-06-24T09:28:03;101820.03;;;26.54;nan
30967;BME280;17649;51.836;8.330;2023-06-24T09:31:04;101814.09;;;26.68;nan
30967;BME280;17649;51.836;8.330;2023-06-24T09:34:05;101817.50;;;26.94;nan
30967;BME280;17649;51.836;8.330;2023-06-24T09:37:05;101808.78;;;27.26;nan
30967;BME280;17649;51.836;8.330;2023-06-24T09:40:05;101814.44;;;27.48;nan
30967;BME280;17649;51.836;8.330;2023-06-24T09:43:08;101819.22;;;27.36;nan
30967;BME280;17649;51.836;8.330;2023-06-24T09:46:19;101816.63;;;26.86;nan
30967;BME280;17649;51.836;8.330;2023-06-24T09:49:20;101815.47;;;26.88;nan
30967;BME280;17649;51.836;8.330;2023-06-24T09:52:20;101812.91;;;27.21;nan
30967;BME280;17649;51.836;8.330;2023-06-24T09:55:21;101807.81;;;27.84;nan
30967;BME280;17649;51.836;8.330;2023-06-24T09:58:22;101803.13;;;27.78;nan
30967;BME280;17649;51.836;8.330;2023-06-24T10:01:23;101804.47;;;27.25;nan
30967;BME280;17649;51.836;8.330;2023-06-24T10:04:23;101799.81;;;27.44;nan
30967;BME280;17649;51.836;8.330;2023-06-24T10:07:25;101794.97;;;27.23;nan
30967;BME280;17649;51.836;8.330;2023-06-24T10:10:27;101789.22;;;28.23;nan
30967;BME280;17649;51.836;8.330;2023-06-24T10:13:27;101787.97;;;28.81;nan
30967;BME280;17649;51.836;8.330;2023-06-24T10:16:28;101787.44;;;29.17;nan
30967;BME280;17649;51.836;8.330;2023-06-24T10:19:28;101782.19;;;28.78;nan
30967;BME280;17649;51.836;8.330;2023-06-24T10:22:29;101778.13;;;28.59;nan
30967;BME280;17649;51.836;8.330;2023-06-24T10:25:35;101779.41;;;28.24;nan
30967;BME280;17649;51.836;8.330;2023-06-24T10:31:55;101768.63;;;29.19;nan
30967;BME280;17649;51.836;8.330;2023-06-24T10:34:56;101770.31;;;29.12;nan
30967;BME280;17649;51.836;8.330;2023-06-24T10:37:57;101769.72;;;29.24;nan
30967;BME280;17649;51.836;8.330;2023-06-24T10:40:57;101763.16;;;29.12;nan
30967;BME280;17649;51.836;8.330;2023-06-24T10:43:57;101763.75;;;29.22;nan
30967;BME280;17649;51.836;8.330;2023-06-24T10:46:59;101761.41;;;29.42;nan
30967;BME280;17649;51.836;8.330;2023-06-24T10:49:59;101751.97;;;28.94;nan
30967;BME280;17649;51.836;8.330;2023-06-24T10:52:59;101739.06;;;29.05;nan
30967;BME280;17649;51.836;8.330;2023-06-24T10:56:01;101744.81;;;29.55;nan
30967;BME280;17649;51.836;8.330;2023-06-24T10:59:01;101750.34;;;29.30;nan
30967;BME280;17649;51.836;8.330;2023-06-24T11:02:02;101743.69;;;28.89;nan
30967;BME280;17649;51.836;8.330;2023-06-24T11:05:03;101737.84;;;28.85;nan
30967;BME280;17649;51.836;8.330;2023-06-24T11:08:04;101733.31;;;28.94;nan
30967;BME280;17649;51.836;8.330;2023-06-24T11:11:05;101734.34;;;28.93;nan
30967;BME280;17649;51.836;8.330;2023-06-24T11:14:06;101725.63;;;29.36;nan
30967;BME280;17649;51.836;8.330;2023-06-24T11:17:06;101720.28;;;29.89;nan
30967;BME280;17649;51.836;8.330;2023-06-24T11:20:08;101718.91;;;29.78;nan
30967;BME280;17649;51.836;8.330;2023-06-24T11:23:09;101726.53;;;29.66;nan
30967;BME280;17649;51.836;8.330;2023-06-24T11:26:10;101718.09;;;29.78;nan
30967;BME280;17649;51.836;8.330;2023-06-24T11:29:10;101722.28;;;29.72;nan
30967;BME280;17649;51.836;8.330;2023-06-24T11:32:11;101717.97;;;29.71;nan
30967;BME280;17649;51.836;8.330;2023-06-24T11:35:12;101723.03;;;30.25;nan
30967;BME280;17649;51.836;8.330;2023-06-24T11:38:14;101709.25;;;31.84;nan
30967;BME280;17649;51.836;8.330;2023-06-24T11:41:16;101709.00;;;32.20;nan
30967;BME280;17649;51.836;8.330;2023-06-24T11:44:20;101710.47;;;31.75;nan
30967;BME280;17649;51.836;8.330;2023-06-24T11:47:22;101715.75;;;32.71;nan
30967;BME280;17649;51.836;8.330;2023-06-24T11:50:26;101705.38;;;31.87;nan
30967;BME280;17649;51.836;8.330;2023-06-24T11:53:31;101712.31;;;30.97;nan
30967;BME280;17649;51.836;8.330;2023-06-24T11:56:40;101702.09;;;31.07;nan
30967;BME280;17649;51.836;8.330;2023-06-24T11:59:41;101699.56;;;31.21;nan
30967;BME280;17649;51.836;8.330;2023-06-24T12:02:42;101685.41;;;34.21;nan
30967;BME280;17649;51.836;8.330;2023-06-24T12:05:42;101684.16;;;37.05;nan
30967;BME280;17649;51.836;8.330;2023-06-24T12:08:47;101678.50;;;35.99;nan
30967;BME280;17649;51.836;8.330;2023-06-24T12:11:47;101674.66;;;36.07;nan
30967;BME280;17649;51.836;8.330;2023-06-24T12:14:47;101681.16;;;33.22;nan
30967;BME280;17649;51.836;8.330;2023-06-24T12:17:48;101677.31;;;33.83;nan
30967;BME280;17649;51.836;8.330;2023-06-24T12:20:48;101665.78;;;34.58;nan
30967;BME280;17649;51.836;8.330;2023-06-24T12:23:48;101674.81;;;34.71;nan
30967;BME280;17649;51.836;8.330;2023-06-24T12:26:48;101671.56;;;35.73;nan
30967;BME280;17649;51.836;8.330;2023-06-24T12:29:49;101653.81;;;38.13;nan
30967;BME280;17649;51.836;8.330;2023-06-24T12:32:50;101662.19;;;38.73;nan
30967;BME280;17649;51.836;8.330;2023-06-24T12:35:50;101662.91;;;37.67;nan
30967;BME280;17649;51.836;8.330;2023-06-24T12:38:50;101651.63;;;37.81;nan
30967;BME280;17649;51.836;8.330;2023-06-24T12:41:50;101658.41;;;35.04;nan
30967;BME280;17649;51.836;8.330;2023-06-24T12:44:51;101654.56;;;32.87;nan
30967;BME280;17649;51.836;8.330;2023-06-24T12:47:51;101653.88;;;34.09;nan
30967;BME280;17649;51.836;8.330;2023-06-24T12:50:52;101647.34;;;36.87;nan
30967;BME280;17649;51.836;8.330;2023-06-24T12:53:55;101638.41;;;38.75;nan
30967;BME280;17649;51.836;8.330;2023-06-24T12:56:55;101651.69;;;39.32;nan
30967;BME280;17649;51.836;8.330;2023-06-24T12:59:57;101648.00;;;35.69;nan
30967;BME280;17649;51.836;8.330;2023-06-24T13:02:57;101648.75;;;35.94;nan
30967;BME280;17649;51.836;8.330;2023-06-24T13:05:57;101648.97;;;38.27;nan
30967;BME280;17649;51.836;8.330;2023-06-24T13:08:58;101640.06;;;38.14;nan
30967;BME280;17649;51.836;8.330;2023-06-24T13:11:58;101644.88;;;37.96;nan
30967;BME280;17649;51.836;8.330;2023-06-24T13:14:58;101652.84;;;37.90;nan
30967;BME280;17649;51.836;8.330;2023-06-24T13:17:59;101640.72;;;36.06;nan
30967;BME280;17649;51.836;8.330;2023-06-24T13:20:59;101654.75;;;33.12;nan
30967;BME280;17649;51.836;8.330;2023-06-24T13:23:59;101657.53;;;32.18;nan
30967;BME280;17649;51.836;8.330;2023-06-24T13:26:59;101660.34;;;31.28;nan
30967;BME280;17649;51.836;8.330;2023-06-24T13:30:00;101669.03;;;31.36;nan
30967;BME280;17649;51.836;8.330;2023-06-24T13:33:00;101655.00;;;31.28;nan
30967;BME280;17649;51.836;8.330;2023-06-24T13:36:00;101649.38;;;32.53;nan
30967;BME280;17649;51.836;8.330;2023-06-24T13:39:03;101646.34;;;35.31;nan
30967;BME280;17649;51.836;8.330;2023-06-24T13:42:03;101646.31;;;34.38;nan
30967;BME280;17649;51.836;8.330;2023-06-24T13:45:04;101644.25;;;32.98;nan
30967;BME280;17649;51.836;8.330;2023-06-24T13:48:04;101643.91;;;33.72;nan
30967;BME280;17649;51.836;8.330;2023-06-24T13:51:04;101644.88;;;33.00;nan
30967;BME280;17649;51.836;8.330;2023-06-24T13:54:06;101643.91;;;31.31;nan
30967;BME280;17649;51.836;8.330;2023-06-24T13:57:07;101645.66;;;31.17;nan
30967;BME280;17649;51.836;8.330;2023-06-24T14:00:07;101639.88;;;31.83;nan
30967;BME280;17649;51.836;8.330;2023-06-24T14:03:09;101644.00;;;31.79;nan
30967;BME280;17649;51.836;8.330;2023-06-24T14:06:09;101629.97;;;33.30;nan
30967;BME280;17649;51.836;8.330;2023-06-24T14:09:09;101637.47;;;34.87;nan
30967;BME280;17649;51.836;8.330;2023-06-24T14:12:10;101626.22;;;35.70;nan
30967;BME280;17649;51.836;8.330;2023-06-24T14:15:10;101627.09;;;37.59;nan
30967;BME280;17649;51.836;8.330;2023-06-24T14:18:11;101623.00;;;38.26;nan
30967;BME280;17649;51.836;8.330;2023-06-24T14:21:11;101618.56;;;38.36;nan
30967;BME280;17649;51.836;8.330;2023-06-24T14:24:11;101612.38;;;37.79;nan
30967;BME280;17649;51.836;8.330;2023-06-24T14:27:12;101609.66;;;38.07;nan
30967;BME280;17649;51.836;8.330;2023-06-24T14:30:12;101600.50;;;40.02;nan
30967;BME280;17649;51.836;8.330;2023-06-24T14:33:13;101615.63;;;38.55;nan
30967;BME280;17649;51.836;8.330;2023-06-24T14:36:13;101603.28;;;41.23;nan
30967;BME280;17649;51.836;8.330;2023-06-24T14:39:14;101599.72;;;42.56;nan
30967;BME280;17649;51.836;8.330;2023-06-24T14:42:15;101594.84;;;43.38;nan
30967;BME280;17649;51.836;8.330;2023-06-24T14:45:15;101594.19;;;42.97;nan
30967;BME280;17649;51.836;8.330;2023-06-24T14:48:15;101594.47;;;39.24;nan
30967;BME280;17649;51.836;8.330;2023-06-24T14:51:16;101601.41;;;39.36;nan
30967;BME280;17649;51.836;8.330;2023-06-24T14:54:16;101586.31;;;40.96;nan
30967;BME280;17649;51.836;8.330;2023-06-24T14:57:16;101599.44;;;41.14;nan
30967;BME280;17649;51.836;8.330;2023-06-24T15:00:17;101590.47;;;37.92;nan
30967;BME280;17649;51.836;8.330;2023-06-24T15:03:17;101590.47;;;37.64;nan
30967;BME280;17649;51.836;8.330;2023-06-24T15:06:17;101595.91;;;38.71;nan
30967;BME280;17649;51.836;8.330;2023-06-24T15:09:17;101585.53;;;41.00;nan
30967;BME280;17649;51.836;8.330;2023-06-24T15:12:18;101580.28;;;41.46;nan
30967;BME280;17649;51.836;8.330;2023-06-24T15:15:18;101585.41;;;41.27;nan
30967;BME280;17649;51.836;8.330;2023-06-24T15:18:18;101577.34;;;39.89;nan
30967;BME280;17649;51.836;8.330;2023-06-24T15:21:19;101571.31;;;41.40;nan
30967;BME280;17649;51.836;8.330;2023-06-24T15:24:19;101567.91;;;41.86;nan
30967;BME280;17649;51.836;8.330;2023-06-24T15:27:19;101569.78;;;40.55;nan
30967;BME280;17649;51.836;8.330;2023-06-24T15:30:19;101570.50;;;40.08;nan
30967;BME280;17649;51.836;8.330;2023-06-24T15:33:20;101569.31;;;39.72;nan
30967;BME280;17649;51.836;8.330;2023-06-24T15:36:20;101558.31;;;41.63;nan
30967;BME280;17649;51.836;8.330;2023-06-24T15:39:22;101550.72;;;41.60;nan
30967;BME280;17649;51.836;8.330;2023-06-24T15:42:22;101563.22;;;40.14;nan
30967;BME280;17649;51.836;8.330;2023-06-24T15:45:22;101562.38;;;41.50;nan
30967;BME280;17649;51.836;8.330;2023-06-24T15:48:23;101561.09;;;42.49;nan
30967;BME280;17649;51.836;8.330;2023-06-24T15:51:26;101563.44;;;42.81;nan
30967;BME280;17649;51.836;8.330;2023-06-24T15:54:26;101554.59;;;41.84;nan
30967;BME280;17649;51.836;8.330;2023-06-24T15:57:26;101552.06;;;42.74;nan
30967;BME280;17649;51.836;8.330;2023-06-24T16:00:26;101548.78;;;42.77;nan
30967;BME280;17649;51.836;8.330;2023-06-24T16:03:27;101542.72;;;43.94;nan
30967;BME280;17649;51.836;8.330;2023-06-24T16:06:27;101540.69;;;41.96;nan
30967;BME280;17649;51.836;8.330;2023-06-24T16:09:28;101539.00;;;44.91;nan
30967;BME280;17649;51.836;8.330;2023-06-24T16:12:28;101536.75;;;44.21;nan
30967;BME280;17649;51.836;8.330;2023-06-24T16:15:29;101532.41;;;44.44;nan
30967;BME280;17649;51.836;8.330;2023-06-24T16:18:29;101530.63;;;45.25;nan
30967;BME280;17649;51.836;8.330;2023-06-24T16:21:30;101530.63;;;43.32;nan